Terminal Aerodrome Forecast
Issued by NWS

Home | Current Version | Previous Version | Text Only | Print | Product List | Glossary On
Versions: 1 2 3 4 5 6 7 8 9 10 11 12 13 14 15 16 17 18 19 20 21 22 23 24
000
FTUS45 KSLC 180540
TAFEVW
TAF
KEVW 180540Z 1806/1906 23012G20KT P6SM SCT070
     FM180800 23022G32KT P6SM BKN070 OVC150
     FM181600 24025G37KT 2SM -SN BR SCT005 BKN015
     FM181800 25025G35KT 3/4SM -SN BLSN VV004
     FM190000 28011KT 2SM -SHSN BR SCT004 BKN015=

USA.gov is the U.S. government's official web portal to all federal, state and local government web resources and services.